sensor_id;sensor_type;location;lat;lon;timestamp;P1;durP1;ratioP1;P2;durP2;ratioP2
18883;SDS011;9574;47.282;9.640;2023-01-05T00:01:29;3.10;;;2.20;;
18883;SDS011;9574;47.282;9.640;2023-01-05T00:03:56;3.87;;;2.53;;
18883;SDS011;9574;47.282;9.640;2023-01-05T00:06:23;2.63;;;2.00;;
18883;SDS011;9574;47.282;9.640;2023-01-05T00:08:51;3.73;;;2.30;;
18883;SDS011;9574;47.282;9.640;2023-01-05T00:11:19;2.83;;;2.20;;
18883;SDS011;9574;47.282;9.640;2023-01-05T00:14:04;3.93;;;2.20;;
18883;SDS011;9574;47.282;9.640;2023-01-05T00:16:52;2.53;;;1.87;;
18883;SDS011;9574;47.282;9.640;2023-01-05T00:19:36;3.23;;;2.00;;
18883;SDS011;9574;47.282;9.640;2023-01-05T00:22:21;2.43;;;1.80;;
18883;SDS011;9574;47.282;9.640;2023-01-05T00:24:57;2.53;;;2.10;;
18883;SDS011;9574;47.282;9.640;2023-01-05T00:27:24;6.30;;;2.17;;
18883;SDS011;9574;47.282;9.640;2023-01-05T00:29:51;1.70;;;1.43;;
18883;SDS011;9574;47.282;9.640;2023-01-05T00:32:18;3.27;;;2.00;;
18883;SDS011;9574;47.282;9.640;2023-01-05T00:34:45;2.20;;;2.00;;
18883;SDS011;9574;47.282;9.640;2023-01-05T00:37:12;6.97;;;1.60;;
18883;SDS011;9574;47.282;9.640;2023-01-05T00:39:39;2.43;;;1.50;;
18883;SDS011;9574;47.282;9.640;2023-01-05T00:42:08;1.83;;;1.30;;
18883;SDS011;9574;47.282;9.640;2023-01-05T00:44:35;2.77;;;1.80;;
18883;SDS011;9574;47.282;9.640;2023-01-05T00:47:02;2.87;;;1.97;;
18883;SDS011;9574;47.282;9.640;2023-01-05T00:49:29;3.37;;;1.40;;
18883;SDS011;9574;47.282;9.640;2023-01-05T00:51:56;2.23;;;1.80;;
18883;SDS011;9574;47.282;9.640;2023-01-05T00:54:23;1.57;;;1.47;;
18883;SDS011;9574;47.282;9.640;2023-01-05T00:56:50;2.83;;;1.60;;
18883;SDS011;9574;47.282;9.640;2023-01-05T00:59:18;3.27;;;1.37;;
18883;SDS011;9574;47.282;9.640;2023-01-05T01:01:45;1.70;;;1.60;;
18883;SDS011;9574;47.282;9.640;2023-01-05T01:04:13;2.13;;;1.77;;
18883;SDS011;9574;47.282;9.640;2023-01-05T01:06:40;1.53;;;1.43;;
18883;SDS011;9574;47.282;9.640;2023-01-05T01:09:07;3.77;;;1.47;;
18883;SDS011;9574;47.282;9.640;2023-01-05T01:11:35;3.30;;;1.60;;
18883;SDS011;9574;47.282;9.640;2023-01-05T01:14:03;2.77;;;1.60;;
18883;SDS011;9574;47.282;9.640;2023-01-05T01:16:32;3.07;;;1.77;;
18883;SDS011;9574;47.282;9.640;2023-01-05T01:18:59;2.10;;;1.60;;
18883;SDS011;9574;47.282;9.640;2023-01-05T01:21:26;2.27;;;1.60;;
18883;SDS011;9574;47.282;9.640;2023-01-05T01:23:53;2.03;;;1.70;;
18883;SDS011;9574;47.282;9.640;2023-01-05T01:26:20;1.80;;;1.47;;
18883;SDS011;9574;47.282;9.640;2023-01-05T01:28:48;3.37;;;1.43;;
18883;SDS011;9574;47.282;9.640;2023-01-05T01:31:15;2.30;;;1.70;;
18883;SDS011;9574;47.282;9.640;2023-01-05T01:33:43;1.77;;;1.57;;
18883;SDS011;9574;47.282;9.640;2023-01-05T01:36:10;2.23;;;1.53;;
18883;SDS011;9574;47.282;9.640;2023-01-05T01:38:37;2.20;;;1.43;;
18883;SDS011;9574;47.282;9.640;2023-01-05T01:41:04;1.53;;;1.43;;
18883;SDS011;9574;47.282;9.640;2023-01-05T01:43:39;2.57;;;1.67;;
18883;SDS011;9574;47.282;9.640;2023-01-05T01:46:08;4.37;;;1.60;;
18883;SDS011;9574;47.282;9.640;2023-01-05T01:48:36;1.80;;;1.70;;
18883;SDS011;9574;47.282;9.640;2023-01-05T01:51:08;2.30;;;1.50;;
18883;SDS011;9574;47.282;9.640;2023-01-05T01:53:41;1.70;;;1.40;;
18883;SDS011;9574;47.282;9.640;2023-01-05T01:56:12;2.90;;;1.70;;
18883;SDS011;9574;47.282;9.640;2023-01-05T01:58:43;2.50;;;1.80;;
18883;SDS011;9574;47.282;9.640;2023-01-05T02:01:10;4.83;;;1.63;;
18883;SDS011;9574;47.282;9.640;2023-01-05T02:03:38;1.83;;;1.60;;
18883;SDS011;9574;47.282;9.640;2023-01-05T02:06:05;2.00;;;1.43;;
18883;SDS011;9574;47.282;9.640;2023-01-05T02:08:34;2.17;;;1.27;;
18883;SDS011;9574;47.282;9.640;2023-01-05T02:11:07;1.60;;;1.50;;
18883;SDS011;9574;47.282;9.640;2023-01-05T02:13:53;1.47;;;1.37;;
18883;SDS011;9574;47.282;9.640;2023-01-05T02:16:42;2.13;;;1.50;;
18883;SDS011;9574;47.282;9.640;2023-01-05T02:19:31;1.43;;;1.33;;
18883;SDS011;9574;47.282;9.640;2023-01-05T02:22:21;2.53;;;1.70;;
18883;SDS011;9574;47.282;9.640;2023-01-05T02:27:53;1.40;;;1.20;;
18883;SDS011;9574;47.282;9.640;2023-01-05T02:30:50;4.07;;;1.40;;
18883;SDS011;9574;47.282;9.640;2023-01-05T02:33:28;2.00;;;1.37;;
18883;SDS011;9574;47.282;9.640;2023-01-05T02:36:23;2.60;;;1.63;;
18883;SDS011;9574;47.282;9.640;2023-01-05T02:38:56;2.80;;;1.40;;
18883;SDS011;9574;47.282;9.640;2023-01-05T02:41:28;3.70;;;1.97;;
18883;SDS011;9574;47.282;9.640;2023-01-05T02:44:00;2.33;;;1.40;;
18883;SDS011;9574;47.282;9.640;2023-01-05T02:46:29;3.43;;;1.80;;
18883;SDS011;9574;47.282;9.640;2023-01-05T02:48:56;1.53;;;1.40;;
18883;SDS011;9574;47.282;9.640;2023-01-05T02:51:25;1.60;;;1.40;;
18883;SDS011;9574;47.282;9.640;2023-01-05T02:53:58;1.90;;;1.40;;
18883;SDS011;9574;47.282;9.640;2023-01-05T02:56:30;2.00;;;1.50;;
18883;SDS011;9574;47.282;9.640;2023-01-05T02:59:02;1.60;;;1.50;;
18883;SDS011;9574;47.282;9.640;2023-01-05T03:01:34;2.40;;;1.60;;
18883;SDS011;9574;47.282;9.640;2023-01-05T03:04:04;1.93;;;1.50;;
18883;SDS011;9574;47.282;9.640;2023-01-05T03:06:37;2.00;;;1.33;;
18883;SDS011;9574;47.282;9.640;2023-01-05T03:09:11;2.43;;;1.60;;
18883;SDS011;9574;47.282;9.640;2023-01-05T03:11:43;1.93;;;1.70;;
18883;SDS011;9574;47.282;9.640;2023-01-05T03:14:35;1.53;;;1.43;;
18883;SDS011;9574;47.282;9.640;2023-01-05T03:17:08;1.90;;;1.53;;
18883;SDS011;9574;47.282;9.640;2023-01-05T03:19:38;3.60;;;1.87;;
18883;SDS011;9574;47.282;9.640;2023-01-05T03:22:10;1.87;;;1.77;;
18883;SDS011;9574;47.282;9.640;2023-01-05T03:24:59;1.90;;;1.50;;
18883;SDS011;9574;47.282;9.640;2023-01-05T03:27:44;2.20;;;1.67;;
18883;SDS011;9574;47.282;9.640;2023-01-05T03:30:33;1.47;;;1.37;;
18883;SDS011;9574;47.282;9.640;2023-01-05T03:33:24;1.53;;;1.43;;
18883;SDS011;9574;47.282;9.640;2023-01-05T03:36:17;2.17;;;1.30;;
18883;SDS011;9574;47.282;9.640;2023-01-05T03:38:49;1.80;;;1.27;;
18883;SDS011;9574;47.282;9.640;2023-01-05T03:41:18;1.40;;;1.30;;
18883;SDS011;9574;47.282;9.640;2023-01-05T03:43:47;1.47;;;1.17;;
18883;SDS011;9574;47.282;9.640;2023-01-05T03:46:17;1.50;;;1.00;;
18883;SDS011;9574;47.282;9.640;2023-01-05T03:48:48;2.30;;;1.03;;
18883;SDS011;9574;47.282;9.640;2023-01-05T03:51:15;1.17;;;1.07;;
18883;SDS011;9574;47.282;9.640;2023-01-05T03:53:42;1.73;;;1.20;;
18883;SDS011;9574;47.282;9.640;2023-01-05T03:56:09;2.00;;;1.27;;
18883;SDS011;9574;47.282;9.640;2023-01-05T03:58:36;1.70;;;1.00;;
18883;SDS011;9574;47.282;9.640;2023-01-05T04:01:04;1.30;;;0.83;;
18883;SDS011;9574;47.282;9.640;2023-01-05T04:03:31;1.60;;;1.17;;
18883;SDS011;9574;47.282;9.640;2023-01-05T04:05:59;1.30;;;1.17;;
18883;SDS011;9574;47.282;9.640;2023-01-05T04:08:27;1.83;;;1.30;;
18883;SDS011;9574;47.282;9.640;2023-01-05T04:10:54;1.40;;;1.10;;
18883;SDS011;9574;47.282;9.640;2023-01-05T04:13:21;1.73;;;1.30;;
18883;SDS011;9574;47.282;9.640;2023-01-05T04:15:49;1.43;;;1.20;;
18883;SDS011;9574;47.282;9.640;2023-01-05T04:18:16;1.60;;;1.20;;
18883;SDS011;9574;47.282;9.640;2023-01-05T04:20:43;1.47;;;1.37;;
18883;SDS011;9574;47.282;9.640;2023-01-05T04:23:11;1.47;;;1.37;;
18883;SDS011;9574;47.282;9.640;2023-01-05T04:25:38;2.40;;;1.37;;
18883;SDS011;9574;47.282;9.640;2023-01-05T04:28:05;1.77;;;1.13;;
18883;SDS011;9574;47.282;9.640;2023-01-05T04:30:32;1.73;;;1.20;;
18883;SDS011;9574;47.282;9.640;2023-01-05T04:32:59;2.03;;;1.33;;
18883;SDS011;9574;47.282;9.640;2023-01-05T04:35:26;1.80;;;1.43;;
18883;SDS011;9574;47.282;9.640;2023-01-05T04:37:52;3.00;;;2.00;;
18883;SDS011;9574;47.282;9.640;2023-01-05T04:40:21;1.27;;;1.17;;
18883;SDS011;9574;47.282;9.640;2023-01-05T04:42:48;1.70;;;1.30;;
18883;SDS011;9574;47.282;9.640;2023-01-05T04:45:15;1.67;;;1.30;;
18883;SDS011;9574;47.282;9.640;2023-01-05T04:47:42;1.53;;;1.40;;
18883;SDS011;9574;47.282;9.640;2023-01-05T04:50:09;2.20;;;2.00;;
18883;SDS011;9574;47.282;9.640;2023-01-05T04:52:36;2.07;;;1.30;;
18883;SDS011;9574;47.282;9.640;2023-01-05T04:55:04;1.27;;;1.10;;
18883;SDS011;9574;47.282;9.640;2023-01-05T04:57:32;1.40;;;1.30;;
18883;SDS011;9574;47.282;9.640;2023-01-05T05:00:00;1.50;;;1.30;;
18883;SDS011;9574;47.282;9.640;2023-01-05T05:02:28;2.40;;;1.60;;
18883;SDS011;9574;47.282;9.640;2023-01-05T05:04:55;1.23;;;1.13;;
18883;SDS011;9574;47.282;9.640;2023-01-05T05:07:22;1.17;;;1.07;;
18883;SDS011;9574;47.282;9.640;2023-01-05T05:09:49;1.20;;;1.10;;
18883;SDS011;9574;47.282;9.640;2023-01-05T05:12:16;2.47;;;1.40;;
18883;SDS011;9574;47.282;9.640;2023-01-05T05:14:46;1.93;;;1.03;;
18883;SDS011;9574;47.282;9.640;2023-01-05T05:17:13;1.67;;;1.13;;
18883;SDS011;9574;47.282;9.640;2023-01-05T05:19:40;1.80;;;1.40;;
18883;SDS011;9574;47.282;9.640;2023-01-05T05:22:07;1.53;;;1.30;;
18883;SDS011;9574;47.282;9.640;2023-01-05T05:24:34;1.27;;;1.00;;
18883;SDS011;9574;47.282;9.640;2023-01-05T05:27:01;1.30;;;1.20;;
18883;SDS011;9574;47.282;9.640;2023-01-05T05:29:28;3.60;;;1.10;;
18883;SDS011;9574;47.282;9.640;2023-01-05T05:31:56;1.30;;;1.20;;
18883;SDS011;9574;47.282;9.640;2023-01-05T05:34:23;2.00;;;1.20;;
18883;SDS011;9574;47.282;9.640;2023-01-05T05:36:50;1.37;;;1.00;;
18883;SDS011;9574;47.282;9.640;2023-01-05T05:39:17;2.07;;;1.33;;
18883;SDS011;9574;47.282;9.640;2023-01-05T05:41:44;2.20;;;1.40;;
18883;SDS011;9574;47.282;9.640;2023-01-05T05:44:11;2.93;;;1.90;;
18883;SDS011;9574;47.282;9.640;2023-01-05T05:46:38;3.20;;;2.10;;
18883;SDS011;9574;47.282;9.640;2023-01-05T05:49:06;4.60;;;1.60;;
18883;SDS011;9574;47.282;9.640;2023-01-05T05:51:34;5.53;;;1.90;;
18883;SDS011;9574;47.282;9.640;2023-01-05T05:54:01;2.97;;;1.90;;
18883;SDS011;9574;47.282;9.640;2023-01-05T05:56:28;4.30;;;2.30;;
18883;SDS011;9574;47.282;9.640;2023-01-05T05:58:55;2.50;;;1.70;;
18883;SDS011;9574;47.282;9.640;2023-01-05T06:01:22;4.13;;;2.00;;
18883;SDS011;9574;47.282;9.640;2023-01-05T06:03:49;2.67;;;1.90;;
18883;SDS011;9574;47.282;9.640;2023-01-05T06:06:17;2.00;;;1.80;;
18883;SDS011;9574;47.282;9.640;2023-01-05T06:08:44;2.37;;;1.60;;
18883;SDS011;9574;47.282;9.640;2023-01-05T06:11:11;2.73;;;1.93;;
18883;SDS011;9574;47.282;9.640;2023-01-05T06:13:38;2.27;;;1.60;;
18883;SDS011;9574;47.282;9.640;2023-01-05T06:16:05;2.70;;;1.60;;
18883;SDS011;9574;47.282;9.640;2023-01-05T06:18:32;1.80;;;1.50;;
18883;SDS011;9574;47.282;9.640;2023-01-05T06:20:59;2.67;;;1.87;;
18883;SDS011;9574;47.282;9.640;2023-01-05T06:23:28;2.03;;;1.83;;
18883;SDS011;9574;47.282;9.640;2023-01-05T06:25:55;2.20;;;1.90;;
18883;SDS011;9574;47.282;9.640;2023-01-05T06:28:22;3.00;;;2.30;;
18883;SDS011;9574;47.282;9.640;2023-01-05T06:30:49;2.80;;;2.13;;
18883;SDS011;9574;47.282;9.640;2023-01-05T06:33:16;2.90;;;1.67;;
18883;SDS011;9574;47.282;9.640;2023-01-05T06:35:43;2.23;;;1.70;;
18883;SDS011;9574;47.282;9.640;2023-01-05T06:38:10;2.20;;;1.87;;
18883;SDS011;9574;47.282;9.640;2023-01-05T06:40:39;2.30;;;2.00;;
18883;SDS011;9574;47.282;9.640;2023-01-05T06:43:08;3.27;;;2.47;;
18883;SDS011;9574;47.282;9.640;2023-01-05T06:45:35;7.33;;;3.63;;
18883;SDS011;9574;47.282;9.640;2023-01-05T06:48:03;7.27;;;4.37;;
18883;SDS011;9574;47.282;9.640;2023-01-05T06:50:30;6.50;;;3.87;;
18883;SDS011;9574;47.282;9.640;2023-01-05T06:52:57;8.43;;;3.50;;
18883;SDS011;9574;47.282;9.640;2023-01-05T06:55:24;6.23;;;2.70;;
18883;SDS011;9574;47.282;9.640;2023-01-05T06:57:52;7.60;;;3.33;;
18883;SDS011;9574;47.282;9.640;2023-01-05T07:00:20;10.43;;;3.67;;
18883;SDS011;9574;47.282;9.640;2023-01-05T07:02:47;6.17;;;3.97;;
18883;SDS011;9574;47.282;9.640;2023-01-05T07:05:14;11.63;;;5.03;;
18883;SDS011;9574;47.282;9.640;2023-01-05T07:07:41;9.43;;;5.20;;
18883;SDS011;9574;47.282;9.640;2023-01-05T07:10:09;10.93;;;5.57;;
18883;SDS011;9574;47.282;9.640;2023-01-05T07:12:36;7.57;;;4.77;;
18883;SDS011;9574;47.282;9.640;2023-01-05T07:15:05;7.43;;;5.07;;
18883;SDS011;9574;47.282;9.640;2023-01-05T07:17:32;9.23;;;4.80;;
18883;SDS011;9574;47.282;9.640;2023-01-05T07:20:00;8.97;;;4.73;;
18883;SDS011;9574;47.282;9.640;2023-01-05T07:22:27;6.87;;;4.30;;
18883;SDS011;9574;47.282;9.640;2023-01-05T07:24:55;9.07;;;4.93;;
18883;SDS011;9574;47.282;9.640;2023-01-05T07:27:22;7.30;;;3.63;;
18883;SDS011;9574;47.282;9.640;2023-01-05T07:29:49;9.10;;;4.40;;
18883;SDS011;9574;47.282;9.640;2023-01-05T07:32:18;4.87;;;3.67;;
18883;SDS011;9574;47.282;9.640;2023-01-05T07:34:45;5.20;;;3.37;;
18883;SDS011;9574;47.282;9.640;2023-01-05T07:37:12;7.00;;;3.50;;
18883;SDS011;9574;47.282;9.640;2023-01-05T07:39:39;5.63;;;3.50;;
18883;SDS011;9574;47.282;9.640;2023-01-05T07:42:06;4.93;;;2.40;;
18883;SDS011;9574;47.282;9.640;2023-01-05T07:44:33;4.30;;;2.97;;
18883;SDS011;9574;47.282;9.640;2023-01-05T07:47:01;9.97;;;3.10;;
18883;SDS011;9574;47.282;9.640;2023-01-05T07:49:30;5.10;;;3.13;;
18883;SDS011;9574;47.282;9.640;2023-01-05T07:51:57;5.63;;;3.60;;
18883;SDS011;9574;47.282;9.640;2023-01-05T07:54:24;4.90;;;3.70;;
18883;SDS011;9574;47.282;9.640;2023-01-05T07:56:51;5.60;;;3.77;;
18883;SDS011;9574;47.282;9.640;2023-01-05T07:59:18;4.50;;;4.00;;
18883;SDS011;9574;47.282;9.640;2023-01-05T08:01:45;7.50;;;3.87;;
18883;SDS011;9574;47.282;9.640;2023-01-05T08:04:13;8.37;;;6.20;;
18883;SDS011;9574;47.282;9.640;2023-01-05T08:06:42;5.13;;;3.00;;
18883;SDS011;9574;47.282;9.640;2023-01-05T08:09:09;3.03;;;2.33;;
18883;SDS011;9574;47.282;9.640;2023-01-05T08:11:53;3.63;;;2.10;;
18883;SDS011;9574;47.282;9.640;2023-01-05T08:14:20;2.27;;;2.07;;
18883;SDS011;9574;47.282;9.640;2023-01-05T08:16:47;1.90;;;1.80;;
18883;SDS011;9574;47.282;9.640;2023-01-05T08:19:14;8.10;;;3.70;;
18883;SDS011;9574;47.282;9.640;2023-01-05T08:21:42;3.53;;;2.40;;
18883;SDS011;9574;47.282;9.640;2023-01-05T08:24:09;3.30;;;2.27;;
18883;SDS011;9574;47.282;9.640;2023-01-05T08:26:36;5.70;;;3.53;;
18883;SDS011;9574;47.282;9.640;2023-01-05T08:29:03;8.90;;;4.23;;
18883;SDS011;9574;47.282;9.640;2023-01-05T08:31:30;5.33;;;2.63;;
18883;SDS011;9574;47.282;9.640;2023-01-05T08:34:01;2.67;;;2.10;;
18883;SDS011;9574;47.282;9.640;2023-01-05T08:36:30;6.47;;;2.37;;
18883;SDS011;9574;47.282;9.640;2023-01-05T08:38:58;8.70;;;2.40;;
18883;SDS011;9574;47.282;9.640;2023-01-05T08:41:27;3.03;;;2.73;;
18883;SDS011;9574;47.282;9.640;2023-01-05T08:43:56;3.50;;;2.53;;
18883;SDS011;9574;47.282;9.640;2023-01-05T08:46:25;3.80;;;2.57;;
18883;SDS011;9574;47.282;9.640;2023-01-05T08:48:54;8.63;;;2.60;;
18883;SDS011;9574;47.282;9.640;2023-01-05T08:51:22;4.53;;;2.80;;
18883;SDS011;9574;47.282;9.640;2023-01-05T08:53:49;6.03;;;3.43;;
18883;SDS011;9574;47.282;9.640;2023-01-05T08:56:18;8.47;;;3.70;;
18883;SDS011;9574;47.282;9.640;2023-01-05T08:58:45;7.23;;;2.93;;
18883;SDS011;9574;47.282;9.640;2023-01-05T09:01:13;4.93;;;3.20;;
18883;SDS011;9574;47.282;9.640;2023-01-05T09:03:41;6.97;;;3.60;;
18883;SDS011;9574;47.282;9.640;2023-01-05T09:06:08;7.03;;;3.73;;
18883;SDS011;9574;47.282;9.640;2023-01-05T09:08:37;7.47;;;3.80;;
18883;SDS011;9574;47.282;9.640;2023-01-05T09:11:05;5.77;;;3.17;;
18883;SDS011;9574;47.282;9.640;2023-01-05T09:13:35;3.80;;;2.30;;
18883;SDS011;9574;47.282;9.640;2023-01-05T09:16:03;3.80;;;2.57;;
18883;SDS011;9574;47.282;9.640;2023-01-05T09:18:31;3.17;;;2.50;;
18883;SDS011;9574;47.282;9.640;2023-01-05T09:20:58;5.97;;;2.73;;
18883;SDS011;9574;47.282;9.640;2023-01-05T09:23:25;6.70;;;3.10;;
18883;SDS011;9574;47.282;9.640;2023-01-05T09:25:52;7.17;;;3.63;;
18883;SDS011;9574;47.282;9.640;2023-01-05T09:28:19;10.80;;;3.67;;
18883;SDS011;9574;47.282;9.640;2023-01-05T09:30:47;13.47;;;6.53;;
18883;SDS011;9574;47.282;9.640;2023-01-05T09:33:14;5.93;;;3.87;;
18883;SDS011;9574;47.282;9.640;2023-01-05T09:35:41;5.80;;;3.17;;
18883;SDS011;9574;47.282;9.640;2023-01-05T09:38:08;3.87;;;2.37;;
18883;SDS011;9574;47.282;9.640;2023-01-05T09:40:36;3.50;;;2.23;;
18883;SDS011;9574;47.282;9.640;2023-01-05T09:43:07;38.17;;;13.50;;
18883;SDS011;9574;47.282;9.640;2023-01-05T09:45:39;8.10;;;4.20;;
18883;SDS011;9574;47.282;9.640;2023-01-05T09:48:07;17.33;;;8.17;;
18883;SDS011;9574;47.282;9.640;2023-01-05T09:50:39;10.43;;;5.23;;
18883;SDS011;9574;47.282;9.640;2023-01-05T09:53:08;7.33;;;2.63;;
18883;SDS011;9574;47.282;9.640;2023-01-05T09:55:37;2.37;;;1.93;;
18883;SDS011;9574;47.282;9.640;2023-01-05T09:58:09;3.60;;;2.07;;
18883;SDS011;9574;47.282;9.640;2023-01-05T10:00:40;2.67;;;1.90;;
18883;SDS011;9574;47.282;9.640;2023-01-05T10:03:12;2.80;;;2.20;;
18883;SDS011;9574;47.282;9.640;2023-01-05T10:05:43;3.53;;;1.87;;
18883;SDS011;9574;47.282;9.640;2023-01-05T10:08:13;3.20;;;2.37;;
18883;SDS011;9574;47.282;9.640;2023-01-05T10:10:44;5.93;;;3.37;;
18883;SDS011;9574;47.282;9.640;2023-01-05T10:13:32;3.80;;;2.23;;
18883;SDS011;9574;47.282;9.640;2023-01-05T10:16:01;3.10;;;2.40;;
18883;SDS011;9574;47.282;9.640;2023-01-05T10:18:30;6.23;;;2.70;;
18883;SDS011;9574;47.282;9.640;2023-01-05T10:21:00;5.07;;;2.63;;
18883;SDS011;9574;47.282;9.640;2023-01-05T10:26:25;3.97;;;2.30;;
18883;SDS011;9574;47.282;9.640;2023-01-05T10:28:58;3.47;;;2.20;;
18883;SDS011;9574;47.282;9.640;2023-01-05T10:31:29;2.97;;;2.10;;
18883;SDS011;9574;47.282;9.640;2023-01-05T10:34:13;5.93;;;2.70;;
18883;SDS011;9574;47.282;9.640;2023-01-05T10:36:58;4.67;;;2.43;;
18883;SDS011;9574;47.282;9.640;2023-01-05T10:39:48;3.13;;;2.60;;
18883;SDS011;9574;47.282;9.640;2023-01-05T10:42:26;4.33;;;2.70;;
18883;SDS011;9574;47.282;9.640;2023-01-05T10:45:06;3.40;;;2.17;;
18883;SDS011;9574;47.282;9.640;2023-01-05T10:47:36;9.30;;;2.17;;
18883;SDS011;9574;47.282;9.640;2023-01-05T10:50:17;3.10;;;2.07;;
18883;SDS011;9574;47.282;9.640;2023-01-05T10:52:52;4.33;;;2.63;;
18883;SDS011;9574;47.282;9.640;2023-01-05T10:55:19;5.50;;;2.47;;
18883;SDS011;9574;47.282;9.640;2023-01-05T10:57:48;3.50;;;1.93;;
18883;SDS011;9574;47.282;9.640;2023-01-05T11:00:16;4.23;;;2.30;;
18883;SDS011;9574;47.282;9.640;2023-01-05T11:02:46;7.17;;;2.73;;
18883;SDS011;9574;47.282;9.640;2023-01-05T11:05:21;4.00;;;2.47;;
18883;SDS011;9574;47.282;9.640;2023-01-05T11:07:52;4.47;;;2.60;;
18883;SDS011;9574;47.282;9.640;2023-01-05T11:10:22;4.73;;;2.63;;
18883;SDS011;9574;47.282;9.640;2023-01-05T11:12:54;3.70;;;2.70;;
18883;SDS011;9574;47.282;9.640;2023-01-05T11:15:28;2.93;;;2.37;;
18883;SDS011;9574;47.282;9.640;2023-01-05T11:17:57;3.97;;;2.60;;
18883;SDS011;9574;47.282;9.640;2023-01-05T11:20:26;3.13;;;2.07;;
18883;SDS011;9574;47.282;9.640;2023-01-05T11:22:54;3.40;;;2.30;;
18883;SDS011;9574;47.282;9.640;2023-01-05T11:25:28;4.00;;;2.30;;
18883;SDS011;9574;47.282;9.640;2023-01-05T11:28:08;3.80;;;2.87;;
18883;SDS011;9574;47.282;9.640;2023-01-05T11:30:41;10.33;;;4.40;;
18883;SDS011;9574;47.282;9.640;2023-01-05T11:33:21;17.77;;;5.00;;
18883;SDS011;9574;47.282;9.640;2023-01-05T11:35:51;12.90;;;5.50;;
18883;SDS011;9574;47.282;9.640;2023-01-05T11:38:22;13.77;;;5.33;;
18883;SDS011;9574;47.282;9.640;2023-01-05T11:40:51;11.83;;;6.07;;
18883;SDS011;9574;47.282;9.640;2023-01-05T11:43:20;5.50;;;3.80;;
18883;SDS011;9574;47.282;9.640;2023-01-05T11:45:49;8.60;;;3.30;;
18883;SDS011;9574;47.282;9.640;2023-01-05T11:48:18;4.27;;;3.00;;
18883;SDS011;9574;47.282;9.640;2023-01-05T11:50:50;5.97;;;2.90;;
18883;SDS011;9574;47.282;9.640;2023-01-05T11:53:24;4.70;;;3.40;;
18883;SDS011;9574;47.282;9.640;2023-01-05T11:56:15;3.63;;;2.90;;
18883;SDS011;9574;47.282;9.640;2023-01-05T11:58:45;6.77;;;3.57;;
18883;SDS011;9574;47.282;9.640;2023-01-05T12:01:22;4.47;;;2.93;;
18883;SDS011;9574;47.282;9.640;2023-01-05T12:07:14;6.43;;;3.00;;
18883;SDS011;9574;47.282;9.640;2023-01-05T12:09:49;5.53;;;3.13;;
18883;SDS011;9574;47.282;9.640;2023-01-05T12:12:34;3.87;;;2.83;;
18883;SDS011;9574;47.282;9.640;2023-01-05T12:15:27;4.87;;;2.93;;
18883;SDS011;9574;47.282;9.640;2023-01-05T12:18:37;5.03;;;3.40;;
18883;SDS011;9574;47.282;9.640;2023-01-05T12:21:19;5.23;;;2.90;;
18883;SDS011;9574;47.282;9.640;2023-01-05T12:26:49;5.60;;;3.90;;
18883;SDS011;9574;47.282;9.640;2023-01-05T12:29:42;3.77;;;2.90;;
18883;SDS011;9574;47.282;9.640;2023-01-05T12:32:24;5.87;;;3.27;;
18883;SDS011;9574;47.282;9.640;2023-01-05T12:35:07;4.67;;;3.20;;
18883;SDS011;9574;47.282;9.640;2023-01-05T12:37:59;3.50;;;2.80;;
18883;SDS011;9574;47.282;9.640;2023-01-05T12:40:57;3.03;;;2.20;;
18883;SDS011;9574;47.282;9.640;2023-01-05T12:43:59;8.03;;;4.40;;
18883;SDS011;9574;47.282;9.640;2023-01-05T12:46:43;7.07;;;3.03;;
18883;SDS011;9574;47.282;9.640;2023-01-05T12:49:21;4.83;;;3.20;;
18883;SDS011;9574;47.282;9.640;2023-01-05T12:51:51;3.67;;;2.83;;
18883;SDS011;9574;47.282;9.640;2023-01-05T12:54:26;4.40;;;3.40;;
18883;SDS011;9574;47.282;9.640;2023-01-05T12:57:02;4.57;;;3.67;;
18883;SDS011;9574;47.282;9.640;2023-01-05T12:59:33;5.73;;;3.97;;
18883;SDS011;9574;47.282;9.640;2023-01-05T13:02:15;4.20;;;3.30;;
18883;SDS011;9574;47.282;9.640;2023-01-05T13:04:54;5.13;;;3.80;;
18883;SDS011;9574;47.282;9.640;2023-01-05T13:07:27;5.43;;;3.33;;
18883;SDS011;9574;47.282;9.640;2023-01-05T13:09:58;3.40;;;3.07;;
18883;SDS011;9574;47.282;9.640;2023-01-05T13:12:29;3.67;;;3.00;;
18883;SDS011;9574;47.282;9.640;2023-01-05T13:15:01;4.80;;;3.20;;
18883;SDS011;9574;47.282;9.640;2023-01-05T13:17:32;4.93;;;3.40;;
18883;SDS011;9574;47.282;9.640;2023-01-05T13:20:02;5.77;;;3.03;;
18883;SDS011;9574;47.282;9.640;2023-01-05T13:22:38;5.17;;;2.30;;
18883;SDS011;9574;47.282;9.640;2023-01-05T13:25:11;5.17;;;3.23;;
18883;SDS011;9574;47.282;9.640;2023-01-05T13:27:45;3.70;;;2.87;;
18883;SDS011;9574;47.282;9.640;2023-01-05T13:30:14;4.63;;;3.13;;
18883;SDS011;9574;47.282;9.640;2023-01-05T13:32:53;12.30;;;6.37;;
18883;SDS011;9574;47.282;9.640;2023-01-05T13:35:33;14.83;;;7.33;;
18883;SDS011;9574;47.282;9.640;2023-01-05T13:38:22;11.60;;;5.37;;
18883;SDS011;9574;47.282;9.640;2023-01-05T13:41:28;5.70;;;4.03;;
18883;SDS011;9574;47.282;9.640;2023-01-05T13:44:21;5.27;;;2.90;;
18883;SDS011;9574;47.282;9.640;2023-01-05T13:47:12;3.97;;;2.73;;
18883;SDS011;9574;47.282;9.640;2023-01-05T13:53:08;5.77;;;3.10;;
18883;SDS011;9574;47.282;9.640;2023-01-05T13:55:41;5.33;;;3.33;;
18883;SDS011;9574;47.282;9.640;2023-01-05T14:01:04;3.20;;;2.30;;
18883;SDS011;9574;47.282;9.640;2023-01-05T14:03:35;2.23;;;2.03;;
18883;SDS011;9574;47.282;9.640;2023-01-05T14:06:05;4.20;;;2.20;;
18883;SDS011;9574;47.282;9.640;2023-01-05T14:08:40;2.97;;;2.10;;
18883;SDS011;9574;47.282;9.640;2023-01-05T14:11:14;4.83;;;3.13;;
18883;SDS011;9574;47.282;9.640;2023-01-05T14:13:44;5.33;;;2.90;;
18883;SDS011;9574;47.282;9.640;2023-01-05T14:19:23;11.10;;;4.87;;
18883;SDS011;9574;47.282;9.640;2023-01-05T14:28:16;6.57;;;3.17;;
18883;SDS011;9574;47.282;9.640;2023-01-05T14:30:48;8.13;;;3.37;;
18883;SDS011;9574;47.282;9.640;2023-01-05T14:33:18;5.73;;;3.50;;
18883;SDS011;9574;47.282;9.640;2023-01-05T14:35:46;6.77;;;3.60;;
18883;SDS011;9574;47.282;9.640;2023-01-05T14:38:17;9.37;;;4.37;;
18883;SDS011;9574;47.282;9.640;2023-01-05T14:40:49;5.50;;;3.57;;
18883;SDS011;9574;47.282;9.640;2023-01-05T14:43:21;4.23;;;2.87;;
18883;SDS011;9574;47.282;9.640;2023-01-05T14:45:58;5.30;;;3.67;;
18883;SDS011;9574;47.282;9.640;2023-01-05T14:48:31;4.43;;;3.10;;
18883;SDS011;9574;47.282;9.640;2023-01-05T14:51:09;6.13;;;3.53;;
18883;SDS011;9574;47.282;9.640;2023-01-05T14:53:48;7.63;;;3.40;;
18883;SDS011;9574;47.282;9.640;2023-01-05T14:56:17;8.87;;;3.50;;
18883;SDS011;9574;47.282;9.640;2023-01-05T14:58:57;5.10;;;3.33;;
18883;SDS011;9574;47.282;9.640;2023-01-05T15:01:37;6.00;;;2.87;;
18883;SDS011;9574;47.282;9.640;2023-01-05T15:04:14;2.47;;;2.10;;
18883;SDS011;9574;47.282;9.640;2023-01-05T15:06:51;3.50;;;2.10;;
18883;SDS011;9574;47.282;9.640;2023-01-05T15:09:39;3.07;;;2.43;;
18883;SDS011;9574;47.282;9.640;2023-01-05T15:12:22;3.90;;;2.40;;
18883;SDS011;9574;47.282;9.640;2023-01-05T15:15:06;4.63;;;3.03;;
18883;SDS011;9574;47.282;9.640;2023-01-05T15:18:11;4.93;;;3.27;;
18883;SDS011;9574;47.282;9.640;2023-01-05T15:21:09;8.43;;;3.77;;
18883;SDS011;9574;47.282;9.640;2023-01-05T15:24:06;6.70;;;3.90;;
18883;SDS011;9574;47.282;9.640;2023-01-05T15:27:05;10.30;;;4.70;;
18883;SDS011;9574;47.282;9.640;2023-01-05T15:30:09;9.17;;;5.27;;
18883;SDS011;9574;47.282;9.640;2023-01-05T15:32:48;6.80;;;4.50;;
18883;SDS011;9574;47.282;9.640;2023-01-05T15:35:26;8.27;;;5.07;;
18883;SDS011;9574;47.282;9.640;2023-01-05T15:38:15;10.37;;;5.30;;
18883;SDS011;9574;47.282;9.640;2023-01-05T15:40:45;7.07;;;4.53;;
18883;SDS011;9574;47.282;9.640;2023-01-05T15:43:13;10.53;;;5.57;;
18883;SDS011;9574;47.282;9.640;2023-01-05T15:45:42;7.57;;;4.83;;
18883;SDS011;9574;47.282;9.640;2023-01-05T15:48:19;10.67;;;5.37;;
18883;SDS011;9574;47.282;9.640;2023-01-05T15:50:52;8.40;;;4.43;;
18883;SDS011;9574;47.282;9.640;2023-01-05T15:53:26;6.93;;;4.30;;
18883;SDS011;9574;47.282;9.640;2023-01-05T15:55:54;8.27;;;4.93;;
18883;SDS011;9574;47.282;9.640;2023-01-05T15:58:22;8.97;;;5.70;;